ADDS METAR Data INFO
IDs: Format: Raw Decoded Include TAF

Data at: 0749 UTC 17 Oct 2017

KFAR 170653Z AUTO 21005KT 10SM CLR 06/02 A2993 RMK AO2 SLP139 T00560022
KFAR 170553Z 20003KT 10SM CLR 06/03 A2992 RMK AO2 SLP136 T00610028 10150 20061 402170000 51007
KFAR 170453Z 21003KT 10SM CLR 08/03 A2992 RMK AO2 SLP135 T00830033
KFAR 170353Z 21004KT 10SM CLR 08/04 A2991 RMK AO2 SLP133 T00830039
KFAR 170253Z 25004KT 10SM CLR 09/04 A2990 RMK AO2 SLP131 T00890039 52010
KFAR 170153Z 23003KT 10SM CLR 10/04 A2989 RMK AO2 SLP128 T01000039
KFAR 170053Z 26006KT 10SM CLR 13/04 A2988 RMK AO2 SLP126 T01280039
KFAR 162353Z 24003KT 10SM CLR 15/04 A2987 RMK AO2 SLP121 T01500039 10217 20150 53004
KFAR 162253Z 25008KT 10SM CLR 19/06 A2986 RMK AO2 SLP117 T01940056
KFAR 162153Z 23012KT 10SM CLR 21/05 A2985 RMK AO2 PK WND 23026/2111 SLP113 T02110050
KFAR 162053Z 24019G27KT 10SM CLR 21/03 A2986 RMK AO2 PK WND 23030/1956 SLP114 T02110033 56027
KFAR 161953Z 23020G32KT 10SM CLR 21/02 A2987 RMK AO2 PK WND 21032/1948 SLP119 T02110022
KFAR 161853Z 21021G28KT 10SM CLR 20/03 A2991 RMK AO2 PK WND 21031/1829 SLP133 T02000033
KFAR 161753Z 20019G30KT 10SM CLR 18/03 A2994 RMK AO2 PK WND 18030/1748 SLP143 T01780028 10178 20011 58037
KFAR 161653Z 19015KT 10SM CLR 14/04 A2999 RMK AO2 SLP161 T01440039
KFAR 161553Z 18012G20KT 10SM CLR 11/03 A3001 RMK AO2 SLP172 T01060028
KFAR 161453Z 18012G21KT 10SM CLR 07/02 A3005 RMK AO2 SLP185 T00720017 58021
KFAR 161353Z 17009KT 10SM CLR 03/00 A3008 RMK AO2 SLP194 T00330000
KFAR 161253Z 17008KT 10SM CLR 01/M01 A3010 RMK AO2 SLP202 T00111006
KFAR 161153Z 18007KT 10SM CLR 02/M01 A3012 RMK AO2 SLP207 T00171006 10022 20000 58009
KFAR 161053Z 18007KT 10SM CLR 01/M01 A3014 RMK AO2 SLP213 T00061011
KFAR 160953Z 18008KT 10SM CLR 01/M01 A3014 RMK AO2 SLP216 T00061011
KFAR 160853Z 19006KT 10SM CLR 02/00 A3014 RMK AO2 SLP215 T00170000 58007
KFAR 160753Z 20005KT 10SM CLR 01/M01 A3016 RMK AO2 SLP221 T00111006
KFAR 160653Z 22005KT 10SM CLR 01/M01 A3017 RMK AO2 SLP225 T00111006
KFAR 160553Z 22006KT 10SM CLR 01/M01 A3016 RMK AO2 SLP224 T00061011 10083 20006 401171028 50001
KFAR 160453Z 23005KT 10SM CLR 02/00 A3017 RMK AO2 SLP226 T00220000
KFAR 160353Z 18003KT 10SM CLR 01/00 A3017 RMK AO2 SLP228 T00110000
KFAR 160253Z 22004KT 10SM CLR 03/01 A3016 RMK AO2 SLP224 T00280006 51011
KFAR 160153Z 00000KT 10SM CLR 04/01 A3015 RMK AO2 SLP222 T00440011
KFAR 160053Z 01005KT 10SM BKN080 07/02 A3015 RMK AO2 SLP220 T00720022
KFAR 152353Z 22005KT 10SM SCT065 BKN085 08/03 A3013 RMK AO2 SLP213 T00830028 10117 20072 51006
KFAR 152253Z 23005KT 10SM SCT070 OVC085 11/03 A3012 RMK AO2 SLP209 T01060028
KFAR 152153Z 29005KT 10SM SCT075 OVC090 11/01 A3012 RMK AO2 SLP208 T01110011
KFAR 152053Z 26009KT 10SM BKN065 BKN080 OVC090 12/03 A3011 RMK AO2 SLP205 T01170033 55003
KFAR 151953Z 25012KT 10SM FEW075 OVC095 11/04 A3011 RMK AO2 SLP203 T01060039